sensor_id;sensor_type;location;lat;lon;timestamp;pressure;altitude;pressure_sealevel;temperature;humidity
73205;BME280;61413;-27.702;153.216;2023-11-19T00:00:29;102154.26;;;35.28;14.81
73205;BME280;61413;-27.702;153.216;2023-11-19T00:02:56;102149.91;;;32.90;16.87
73205;BME280;61413;-27.702;153.216;2023-11-19T00:05:23;102160.14;;;30.91;18.73
73205;BME280;61413;-27.702;153.216;2023-11-19T00:07:49;102157.80;;;30.97;19.48
73205;BME280;61413;-27.702;153.216;2023-11-19T00:10:19;102151.74;;;30.94;19.94
73205;BME280;61413;-27.702;153.216;2023-11-19T00:12:43;102149.18;;;36.03;17.67
73205;BME280;61413;-27.702;153.216;2023-11-19T00:15:10;102140.66;;;34.40;17.75
73205;BME280;61413;-27.702;153.216;2023-11-19T00:17:37;102146.31;;;32.88;18.54
73205;BME280;61413;-27.702;153.216;2023-11-19T00:20:04;102137.27;;;35.66;17.19
73205;BME280;61413;-27.702;153.216;2023-11-19T00:22:30;102132.09;;;35.67;17.03
73205;BME280;61413;-27.702;153.216;2023-11-19T00:24:57;102148.53;;;37.73;16.09
73205;BME280;61413;-27.702;153.216;2023-11-19T00:27:23;102144.52;;;37.95;15.82
73205;BME280;61413;-27.702;153.216;2023-11-19T00:29:50;102141.77;;;38.74;15.22
73205;BME280;61413;-27.702;153.216;2023-11-19T00:32:17;102138.22;;;39.86;14.48
73205;BME280;61413;-27.702;153.216;2023-11-19T00:34:45;102131.84;;;38.51;14.49
73205;BME280;61413;-27.702;153.216;2023-11-19T00:37:12;102120.55;;;35.75;15.62
73205;BME280;61413;-27.702;153.216;2023-11-19T00:39:39;102126.00;;;37.38;15.33
73205;BME280;61413;-27.702;153.216;2023-11-19T00:42:05;102120.29;;;36.47;15.93
73205;BME280;61413;-27.702;153.216;2023-11-19T00:44:32;102114.91;;;33.72;17.36
73205;BME280;61413;-27.702;153.216;2023-11-19T00:46:59;102114.13;;;31.20;19.33
73205;BME280;61413;-27.702;153.216;2023-11-19T00:49:27;102112.97;;;30.42;20.40
73205;BME280;61413;-27.702;153.216;2023-11-19T00:51:53;102113.81;;;31.75;19.61
73205;BME280;61413;-27.702;153.216;2023-11-19T00:54:20;102103.17;;;35.21;17.73
73205;BME280;61413;-27.702;153.216;2023-11-19T00:56:46;102118.17;;;33.63;18.45
73205;BME280;61413;-27.702;153.216;2023-11-19T00:59:13;102111.24;;;34.15;18.65
73205;BME280;61413;-27.702;153.216;2023-11-19T01:01:39;102116.69;;;34.53;18.48
73205;BME280;61413;-27.702;153.216;2023-11-19T01:04:06;102124.11;;;34.00;18.65
73205;BME280;61413;-27.702;153.216;2023-11-19T01:06:33;102109.55;;;35.23;17.88
73205;BME280;61413;-27.702;153.216;2023-11-19T01:09:00;102097.61;;;35.50;17.70
73205;BME280;61413;-27.702;153.216;2023-11-19T01:11:27;102105.30;;;34.97;18.02
73205;BME280;61413;-27.702;153.216;2023-11-19T01:13:54;102097.99;;;34.69;18.29
73205;BME280;61413;-27.702;153.216;2023-11-19T01:16:21;102101.88;;;34.57;18.59
73205;BME280;61413;-27.702;153.216;2023-11-19T01:18:49;102101.99;;;33.51;19.40
73205;BME280;61413;-27.702;153.216;2023-11-19T01:21:16;102099.55;;;31.84;20.59
73205;BME280;61413;-27.702;153.216;2023-11-19T01:23:42;102097.22;;;30.39;21.75
73205;BME280;61413;-27.702;153.216;2023-11-19T01:26:10;102088.34;;;29.80;22.39
73205;BME280;61413;-27.702;153.216;2023-11-19T01:28:36;102089.29;;;29.79;22.81
73205;BME280;61413;-27.702;153.216;2023-11-19T01:31:03;102085.67;;;29.85;22.97
73205;BME280;61413;-27.702;153.216;2023-11-19T01:33:30;102090.07;;;29.01;23.90
73205;BME280;61413;-27.702;153.216;2023-11-19T01:35:58;102086.67;;;27.97;24.49
73205;BME280;61413;-27.702;153.216;2023-11-19T01:38:24;102084.40;;;28.81;24.39
73205;BME280;61413;-27.702;153.216;2023-11-19T01:40:51;102086.76;;;28.50;24.53
73205;BME280;61413;-27.702;153.216;2023-11-19T01:43:33;102077.56;;;28.44;24.77
73205;BME280;61413;-27.702;153.216;2023-11-19T01:45:46;102076.25;;;28.55;24.93
73205;BME280;61413;-27.702;153.216;2023-11-19T01:48:13;102069.61;;;28.63;25.13
73205;BME280;61413;-27.702;153.216;2023-11-19T01:50:40;102059.25;;;29.03;24.90
73205;BME280;61413;-27.702;153.216;2023-11-19T01:53:07;102060.73;;;29.33;24.76
73205;BME280;61413;-27.702;153.216;2023-11-19T01:55:33;102048.72;;;29.49;24.45
73205;BME280;61413;-27.702;153.216;2023-11-19T01:58:01;102055.73;;;29.35;24.77
73205;BME280;61413;-27.702;153.216;2023-11-19T02:00:28;102055.77;;;28.81;24.99
73205;BME280;61413;-27.702;153.216;2023-11-19T02:02:55;102057.23;;;28.42;25.28
73205;BME280;61413;-27.702;153.216;2023-11-19T02:05:21;102057.45;;;27.84;25.63
73205;BME280;61413;-27.702;153.216;2023-11-19T02:07:49;102063.00;;;28.07;25.65
73205;BME280;61413;-27.702;153.216;2023-11-19T02:10:15;102060.83;;;27.31;26.04
73205;BME280;61413;-27.702;153.216;2023-11-19T02:12:42;102065.41;;;27.40;26.42
73205;BME280;61413;-27.702;153.216;2023-11-19T02:15:10;102073.74;;;27.22;26.69
73205;BME280;61413;-27.702;153.216;2023-11-19T02:17:37;102075.37;;;27.32;26.98
73205;BME280;61413;-27.702;153.216;2023-11-19T02:20:04;102074.02;;;27.35;26.91
73205;BME280;61413;-27.702;153.216;2023-11-19T02:22:32;102077.68;;;26.92;27.11
73205;BME280;61413;-27.702;153.216;2023-11-19T02:25:03;102081.40;;;26.81;26.85
73205;BME280;61413;-27.702;153.216;2023-11-19T02:27:39;102082.07;;;27.10;27.20
73205;BME280;61413;-27.702;153.216;2023-11-19T02:29:54;102086.76;;;27.13;27.64
73205;BME280;61413;-27.702;153.216;2023-11-19T02:32:20;102087.23;;;26.50;28.06
73205;BME280;61413;-27.702;153.216;2023-11-19T02:34:47;102089.30;;;26.02;28.31
73205;BME280;61413;-27.702;153.216;2023-11-19T02:37:14;102087.85;;;26.25;28.50
73205;BME280;61413;-27.702;153.216;2023-11-19T02:39:41;102094.89;;;26.27;28.68
73205;BME280;61413;-27.702;153.216;2023-11-19T02:42:08;102098.49;;;26.21;28.91
73205;BME280;61413;-27.702;153.216;2023-11-19T02:44:35;102094.19;;;26.35;28.91
73205;BME280;61413;-27.702;153.216;2023-11-19T02:47:01;102097.87;;;26.32;28.79
73205;BME280;61413;-27.702;153.216;2023-11-19T02:49:28;102099.39;;;26.66;28.42
73205;BME280;61413;-27.702;153.216;2023-11-19T02:51:54;102096.20;;;26.22;28.25
73205;BME280;61413;-27.702;153.216;2023-11-19T02:54:21;102100.19;;;26.91;28.11
73205;BME280;61413;-27.702;153.216;2023-11-19T02:56:47;102096.30;;;27.10;27.76
73205;BME280;61413;-27.702;153.216;2023-11-19T02:59:15;102099.28;;;27.05;27.37
73205;BME280;61413;-27.702;153.216;2023-11-19T03:01:41;102095.99;;;27.46;27.12
73205;BME280;61413;-27.702;153.216;2023-11-19T03:04:08;102089.31;;;28.19;26.55
73205;BME280;61413;-27.702;153.216;2023-11-19T03:06:34;102084.04;;;27.98;26.47
73205;BME280;61413;-27.702;153.216;2023-11-19T03:09:01;102077.91;;;28.46;26.48
73205;BME280;61413;-27.702;153.216;2023-11-19T03:11:29;102075.41;;;28.49;26.40
73205;BME280;61413;-27.702;153.216;2023-11-19T03:13:55;102073.06;;;28.41;26.17
73205;BME280;61413;-27.702;153.216;2023-11-19T03:16:22;102070.62;;;28.28;26.23
73205;BME280;61413;-27.702;153.216;2023-11-19T03:18:48;102068.34;;;28.76;26.19
73205;BME280;61413;-27.702;153.216;2023-11-19T03:21:15;102066.37;;;28.53;25.36
73205;BME280;61413;-27.702;153.216;2023-11-19T03:23:42;102061.83;;;28.31;25.57
73205;BME280;61413;-27.702;153.216;2023-11-19T03:26:10;102059.47;;;28.36;25.42
73205;BME280;61413;-27.702;153.216;2023-11-19T03:28:37;102051.58;;;28.17;25.18
73205;BME280;61413;-27.702;153.216;2023-11-19T03:31:07;102043.23;;;27.84;25.29
73205;BME280;61413;-27.702;153.216;2023-11-19T03:33:30;102037.93;;;27.81;25.39
73205;BME280;61413;-27.702;153.216;2023-11-19T03:35:57;102034.16;;;28.00;25.92
73205;BME280;61413;-27.702;153.216;2023-11-19T03:38:24;102026.85;;;28.01;26.26
73205;BME280;61413;-27.702;153.216;2023-11-19T03:40:51;102022.26;;;27.70;26.80
73205;BME280;61413;-27.702;153.216;2023-11-19T03:43:17;102021.51;;;27.55;27.17
73205;BME280;61413;-27.702;153.216;2023-11-19T03:45:45;102008.30;;;27.39;27.54
73205;BME280;61413;-27.702;153.216;2023-11-19T03:48:12;102000.16;;;27.36;27.59
73205;BME280;61413;-27.702;153.216;2023-11-19T03:50:38;101991.58;;;27.64;27.35
73205;BME280;61413;-27.702;153.216;2023-11-19T03:53:04;101987.39;;;28.60;26.79
73205;BME280;61413;-27.702;153.216;2023-11-19T03:55:31;101988.66;;;29.23;26.39
73205;BME280;61413;-27.702;153.216;2023-11-19T03:57:57;101995.16;;;28.74;26.16
73205;BME280;61413;-27.702;153.216;2023-11-19T04:00:23;101996.96;;;28.44;26.17
73205;BME280;61413;-27.702;153.216;2023-11-19T04:02:50;102000.53;;;28.37;25.90
73205;BME280;61413;-27.702;153.216;2023-11-19T04:05:17;102004.08;;;28.31;25.87
73205;BME280;61413;-27.702;153.216;2023-11-19T04:07:43;101998.34;;;28.62;25.80
73205;BME280;61413;-27.702;153.216;2023-11-19T04:10:10;101994.59;;;27.82;26.43
73205;BME280;61413;-27.702;153.216;2023-11-19T04:12:37;101992.12;;;27.75;26.66
73205;BME280;61413;-27.702;153.216;2023-11-19T04:15:06;101990.46;;;27.61;27.06
73205;BME280;61413;-27.702;153.216;2023-11-19T04:17:30;101982.75;;;27.34;26.71
73205;BME280;61413;-27.702;153.216;2023-11-19T04:19:56;101982.60;;;27.66;26.71
73205;BME280;61413;-27.702;153.216;2023-11-19T04:22:24;101987.34;;;27.56;26.84
73205;BME280;61413;-27.702;153.216;2023-11-19T04:24:51;101995.66;;;27.13;27.35
73205;BME280;61413;-27.702;153.216;2023-11-19T04:27:17;102001.70;;;27.38;27.46
73205;BME280;61413;-27.702;153.216;2023-11-19T04:29:44;101994.48;;;27.06;27.51
73205;BME280;61413;-27.702;153.216;2023-11-19T04:32:10;101999.24;;;27.80;27.34
73205;BME280;61413;-27.702;153.216;2023-11-19T04:34:36;102000.29;;;28.06;27.05
73205;BME280;61413;-27.702;153.216;2023-11-19T04:37:03;101990.60;;;27.44;27.11
73205;BME280;61413;-27.702;153.216;2023-11-19T04:39:30;101993.92;;;26.88;27.61
73205;BME280;61413;-27.702;153.216;2023-11-19T04:41:56;101981.07;;;27.49;27.31
73205;BME280;61413;-27.702;153.216;2023-11-19T04:44:22;101973.74;;;28.40;26.91
73205;BME280;61413;-27.702;153.216;2023-11-19T04:46:49;101974.20;;;27.68;27.16
73205;BME280;61413;-27.702;153.216;2023-11-19T04:49:16;101969.28;;;28.14;26.88
73205;BME280;61413;-27.702;153.216;2023-11-19T04:51:43;101959.13;;;27.40;27.07
73205;BME280;61413;-27.702;153.216;2023-11-19T04:54:11;101952.80;;;27.06;27.55
73205;BME280;61413;-27.702;153.216;2023-11-19T04:56:37;101947.67;;;27.28;27.76
73205;BME280;61413;-27.702;153.216;2023-11-19T04:59:04;101950.46;;;27.83;27.54
73205;BME280;61413;-27.702;153.216;2023-11-19T05:01:30;101948.02;;;27.41;27.74
73205;BME280;61413;-27.702;153.216;2023-11-19T05:03:57;101940.88;;;27.31;27.54
73205;BME280;61413;-27.702;153.216;2023-11-19T05:06:24;101942.64;;;27.07;27.72
73205;BME280;61413;-27.702;153.216;2023-11-19T05:08:51;101942.73;;;26.91;27.78
73205;BME280;61413;-27.702;153.216;2023-11-19T05:11:17;101936.16;;;26.93;28.03
73205;BME280;61413;-27.702;153.216;2023-11-19T05:13:44;101933.13;;;26.79;28.36
73205;BME280;61413;-27.702;153.216;2023-11-19T05:16:11;101926.22;;;26.57;28.48
73205;BME280;61413;-27.702;153.216;2023-11-19T05:18:38;101928.67;;;26.97;28.71
73205;BME280;61413;-27.702;153.216;2023-11-19T05:21:04;101920.66;;;26.97;28.71
73205;BME280;61413;-27.702;153.216;2023-11-19T05:23:31;101919.51;;;26.89;28.94
73205;BME280;61413;-27.702;153.216;2023-11-19T05:25:58;101921.35;;;26.98;29.00
73205;BME280;61413;-27.702;153.216;2023-11-19T05:28:25;101920.38;;;27.23;28.82
73205;BME280;61413;-27.702;153.216;2023-11-19T05:30:51;101919.92;;;26.77;28.88
73205;BME280;61413;-27.702;153.216;2023-11-19T05:33:18;101913.69;;;27.26;28.75
73205;BME280;61413;-27.702;153.216;2023-11-19T05:35:45;101905.84;;;26.99;28.40
73205;BME280;61413;-27.702;153.216;2023-11-19T05:38:11;101905.93;;;26.79;28.48
73205;BME280;61413;-27.702;153.216;2023-11-19T05:40:38;101900.59;;;26.73;28.50
73205;BME280;61413;-27.702;153.216;2023-11-19T05:43:04;101902.72;;;26.79;28.31
73205;BME280;61413;-27.702;153.216;2023-11-19T05:45:31;101900.76;;;26.65;28.40
73205;BME280;61413;-27.702;153.216;2023-11-19T05:47:58;101904.69;;;26.95;28.50
73205;BME280;61413;-27.702;153.216;2023-11-19T05:50:24;101908.07;;;26.82;28.60
73205;BME280;61413;-27.702;153.216;2023-11-19T05:52:50;101913.99;;;27.02;28.63
73205;BME280;61413;-27.702;153.216;2023-11-19T05:55:17;101912.91;;;26.81;28.49
73205;BME280;61413;-27.702;153.216;2023-11-19T05:57:44;101908.91;;;26.76;28.33
73205;BME280;61413;-27.702;153.216;2023-11-19T06:00:12;101898.80;;;26.83;28.09
73205;BME280;61413;-27.702;153.216;2023-11-19T06:02:38;101901.61;;;26.63;28.00
73205;BME280;61413;-27.702;153.216;2023-11-19T06:05:06;101904.90;;;26.41;28.13
73205;BME280;61413;-27.702;153.216;2023-11-19T06:07:33;101907.65;;;26.65;27.99
73205;BME280;61413;-27.702;153.216;2023-11-19T06:10:00;101911.58;;;26.60;27.82
73205;BME280;61413;-27.702;153.216;2023-11-19T06:12:26;101912.72;;;26.80;27.85
73205;BME280;61413;-27.702;153.216;2023-11-19T06:14:52;101913.59;;;26.93;28.08
73205;BME280;61413;-27.702;153.216;2023-11-19T06:17:19;101924.34;;;26.57;28.26
73205;BME280;61413;-27.702;153.216;2023-11-19T06:19:46;101929.46;;;26.08;28.64
73205;BME280;61413;-27.702;153.216;2023-11-19T06:22:13;101927.75;;;26.10;28.98
73205;BME280;61413;-27.702;153.216;2023-11-19T06:24:40;101926.49;;;25.91;29.17
73205;BME280;61413;-27.702;153.216;2023-11-19T06:27:06;101930.70;;;25.79;29.38
73205;BME280;61413;-27.702;153.216;2023-11-19T06:29:34;101925.42;;;25.76;29.54
73205;BME280;61413;-27.702;153.216;2023-11-19T06:32:01;101920.42;;;25.69;29.58
73205;BME280;61413;-27.702;153.216;2023-11-19T06:34:28;101922.02;;;25.34;29.76
73205;BME280;61413;-27.702;153.216;2023-11-19T06:36:54;101922.19;;;25.82;29.68
73205;BME280;61413;-27.702;153.216;2023-11-19T06:39:20;101922.84;;;25.81;30.00
73205;BME280;61413;-27.702;153.216;2023-11-19T06:41:47;101927.45;;;25.77;30.38
73205;BME280;61413;-27.702;153.216;2023-11-19T06:44:14;101935.19;;;25.44;30.48
73205;BME280;61413;-27.702;153.216;2023-11-19T06:46:41;101936.68;;;25.23;30.57
73205;BME280;61413;-27.702;153.216;2023-11-19T06:49:07;101936.48;;;25.03;30.62
73205;BME280;61413;-27.702;153.216;2023-11-19T06:51:34;101938.33;;;25.60;30.59
73205;BME280;61413;-27.702;153.216;2023-11-19T06:54:00;101936.85;;;25.28;30.62
73205;BME280;61413;-27.702;153.216;2023-11-19T06:56:27;101938.45;;;25.14;30.70
73205;BME280;61413;-27.702;153.216;2023-11-19T06:58:53;101938.29;;;25.35;30.48
73205;BME280;61413;-27.702;153.216;2023-11-19T07:01:21;101938.16;;;24.83;30.37
73205;BME280;61413;-27.702;153.216;2023-11-19T07:03:48;101938.68;;;25.01;30.52
73205;BME280;61413;-27.702;153.216;2023-11-19T07:06:15;101942.34;;;25.08;30.30
73205;BME280;61413;-27.702;153.216;2023-11-19T07:08:42;101948.19;;;25.05;30.23
73205;BME280;61413;-27.702;153.216;2023-11-19T07:11:09;101951.31;;;24.89;30.15
73205;BME280;61413;-27.702;153.216;2023-11-19T07:13:36;101954.50;;;24.93;30.25
73205;BME280;61413;-27.702;153.216;2023-11-19T07:16:03;101951.91;;;24.74;30.41
73205;BME280;61413;-27.702;153.216;2023-11-19T07:18:30;101949.97;;;25.21;30.42
73205;BME280;61413;-27.702;153.216;2023-11-19T07:20:57;101950.67;;;24.74;30.65
73205;BME280;61413;-27.702;153.216;2023-11-19T07:23:24;101956.64;;;24.62;30.93
73205;BME280;61413;-27.702;153.216;2023-11-19T07:25:51;101959.75;;;24.72;31.01
73205;BME280;61413;-27.702;153.216;2023-11-19T07:28:17;101963.66;;;24.78;31.02
73205;BME280;61413;-27.702;153.216;2023-11-19T07:30:44;101966.64;;;24.91;31.33
73205;BME280;61413;-27.702;153.216;2023-11-19T07:33:10;101974.61;;;25.17;31.23
73205;BME280;61413;-27.702;153.216;2023-11-19T07:35:37;101987.56;;;24.54;31.43
73205;BME280;61413;-27.702;153.216;2023-11-19T07:38:04;101995.07;;;24.51;31.58
73205;BME280;61413;-27.702;153.216;2023-11-19T07:40:30;102006.08;;;24.30;31.81
73205;BME280;61413;-27.702;153.216;2023-11-19T07:42:57;102012.68;;;24.65;31.82
73205;BME280;61413;-27.702;153.216;2023-11-19T07:45:24;102011.12;;;24.43;31.69
73205;BME280;61413;-27.702;153.216;2023-11-19T07:47:51;102019.90;;;24.37;31.71
73205;BME280;61413;-27.702;153.216;2023-11-19T07:50:17;102022.48;;;24.52;31.78
73205;BME280;61413;-27.702;153.216;2023-11-19T07:52:44;102032.06;;;24.22;31.84
73205;BME280;61413;-27.702;153.216;2023-11-19T07:55:11;102030.06;;;23.93;31.94
73205;BME280;61413;-27.702;153.216;2023-11-19T07:57:37;102027.90;;;23.95;31.94
73205;BME280;61413;-27.702;153.216;2023-11-19T08:00:05;102027.35;;;24.03;32.08
73205;BME280;61413;-27.702;153.216;2023-11-19T08:02:32;102022.45;;;23.45;32.15
73205;BME280;61413;-27.702;153.216;2023-11-19T08:05:09;102023.03;;;23.27;31.91
73205;BME280;61413;-27.702;153.216;2023-11-19T08:07:23;102023.97;;;23.84;31.82
73205;BME280;61413;-27.702;153.216;2023-11-19T08:09:50;102026.31;;;23.84;31.91
73205;BME280;61413;-27.702;153.216;2023-11-19T08:12:17;102028.39;;;23.66;32.06
73205;BME280;61413;-27.702;153.216;2023-11-19T08:14:44;102021.61;;;23.76;32.22
73205;BME280;61413;-27.702;153.216;2023-11-19T08:17:10;102015.70;;;23.64;32.42
73205;BME280;61413;-27.702;153.216;2023-11-19T08:19:37;102015.49;;;23.46;32.57
73205;BME280;61413;-27.702;153.216;2023-11-19T08:22:04;102017.81;;;23.36;32.65
73205;BME280;61413;-27.702;153.216;2023-11-19T08:24:31;102016.73;;;23.51;32.83
73205;BME280;61413;-27.702;153.216;2023-11-19T08:26:58;102010.36;;;23.48;32.92
73205;BME280;61413;-27.702;153.216;2023-11-19T08:29:24;102009.52;;;23.12;33.07
73205;BME280;61413;-27.702;153.216;2023-11-19T08:31:51;102015.86;;;23.13;33.18
73205;BME280;61413;-27.702;153.216;2023-11-19T08:34:17;102017.80;;;23.29;33.34
73205;BME280;61413;-27.702;153.216;2023-11-19T08:36:44;102015.32;;;22.96;33.50
73205;BME280;61413;-27.702;153.216;2023-11-19T08:39:10;102013.15;;;23.02;33.64
73205;BME280;61413;-27.702;153.216;2023-11-19T08:41:37;102008.35;;;22.96;33.80
73205;BME280;61413;-27.702;153.216;2023-11-19T08:44:05;102010.88;;;23.11;33.98
73205;BME280;61413;-27.702;153.216;2023-11-19T08:46:31;102011.66;;;22.93;33.97
73205;BME280;61413;-27.702;153.216;2023-11-19T08:48:58;102018.06;;;23.01;34.17
73205;BME280;61413;-27.702;153.216;2023-11-19T08:51:26;102025.25;;;23.09;34.27
73205;BME280;61413;-27.702;153.216;2023-11-19T08:53:53;102029.76;;;23.00;34.38
73205;BME280;61413;-27.702;153.216;2023-11-19T08:56:19;102036.78;;;23.33;34.51
73205;BME280;61413;-27.702;153.216;2023-11-19T08:58:46;102035.68;;;22.90;34.67
73205;BME280;61413;-27.702;153.216;2023-11-19T09:01:12;102037.77;;;23.38;34.69
73205;BME280;61413;-27.702;153.216;2023-11-19T09:03:39;102045.40;;;22.90;34.85
73205;BME280;61413;-27.702;153.216;2023-11-19T09:06:06;102052.14;;;22.86;34.88
73205;BME280;61413;-27.702;153.216;2023-11-19T09:08:32;102055.75;;;22.93;34.94
73205;BME280;61413;-27.702;153.216;2023-11-19T09:10:58;102063.98;;;22.81;35.07
73205;BME280;61413;-27.702;153.216;2023-11-19T09:13:26;102069.15;;;23.12;35.00
73205;BME280;61413;-27.702;153.216;2023-11-19T09:15:52;102071.16;;;22.79;34.95
73205;BME280;61413;-27.702;153.216;2023-11-19T09:18:19;102074.31;;;22.76;35.01
73205;BME280;61413;-27.702;153.216;2023-11-19T09:20:46;102075.42;;;22.91;35.05
73205;BME280;61413;-27.702;153.216;2023-11-19T09:23:12;102076.24;;;22.86;35.02
73205;BME280;61413;-27.702;153.216;2023-11-19T09:28:37;102072.58;;;22.40;34.83
73205;BME280;61413;-27.702;153.216;2023-11-19T09:31:12;102073.08;;;22.47;34.52
73205;BME280;61413;-27.702;153.216;2023-11-19T09:33:31;102073.63;;;22.53;34.20
73205;BME280;61413;-27.702;153.216;2023-11-19T09:35:57;102071.83;;;22.76;34.12
73205;BME280;61413;-27.702;153.216;2023-11-19T09:38:23;102070.49;;;22.72;34.17
73205;BME280;61413;-27.702;153.216;2023-11-19T09:40:50;102072.14;;;22.86;34.38
73205;BME280;61413;-27.702;153.216;2023-11-19T09:43:17;102075.31;;;23.06;34.49
73205;BME280;61413;-27.702;153.216;2023-11-19T09:45:49;102072.28;;;23.15;34.65
73205;BME280;61413;-27.702;153.216;2023-11-19T09:48:09;102064.73;;;22.85;34.61
73205;BME280;61413;-27.702;153.216;2023-11-19T09:50:36;102060.79;;;22.84;34.60
73205;BME280;61413;-27.702;153.216;2023-11-19T09:53:02;102059.00;;;22.90;34.58
73205;BME280;61413;-27.702;153.216;2023-11-19T09:55:29;102061.38;;;22.77;34.66
73205;BME280;61413;-27.702;153.216;2023-11-19T09:57:56;102064.04;;;22.56;34.59
73205;BME280;61413;-27.702;153.216;2023-11-19T10:00:23;102067.16;;;22.74;34.73
73205;BME280;61413;-27.702;153.216;2023-11-19T10:02:51;102065.21;;;22.40;34.78
73205;BME280;61413;-27.702;153.216;2023-11-19T10:05:17;102062.43;;;22.68;34.81
73205;BME280;61413;-27.702;153.216;2023-11-19T10:07:45;102061.54;;;22.39;34.89
73205;BME280;61413;-27.702;153.216;2023-11-19T10:10:12;102068.80;;;22.38;35.03
73205;BME280;61413;-27.702;153.216;2023-11-19T10:12:39;102075.98;;;22.60;35.10
73205;BME280;61413;-27.702;153.216;2023-11-19T10:15:08;102081.31;;;22.33;35.16
73205;BME280;61413;-27.702;153.216;2023-11-19T10:17:34;102083.13;;;22.27;35.22
73205;BME280;61413;-27.702;153.216;2023-11-19T10:20:04;102082.80;;;22.40;35.27
73205;BME280;61413;-27.702;153.216;2023-11-19T10:22:27;102078.43;;;22.30;35.11
73205;BME280;61413;-27.702;153.216;2023-11-19T10:24:54;102068.29;;;22.41;35.04
73205;BME280;61413;-27.702;153.216;2023-11-19T10:27:20;102065.29;;;22.47;34.95
73205;BME280;61413;-27.702;153.216;2023-11-19T10:29:47;102065.04;;;22.44;34.91
73205;BME280;61413;-27.702;153.216;2023-11-19T10:32:14;102068.49;;;22.30;34.86
73205;BME280;61413;-27.702;153.216;2023-11-19T10:34:41;102068.00;;;22.36;34.82
73205;BME280;61413;-27.702;153.216;2023-11-19T10:37:08;102066.11;;;22.56;34.80
73205;BME280;61413;-27.702;153.216;2023-11-19T10:39:52;102066.18;;;22.24;34.80
73205;BME280;61413;-27.702;153.216;2023-11-19T10:42:18;102070.98;;;22.22;34.93
73205;BME280;61413;-27.702;153.216;2023-11-19T10:44:33;102077.73;;;22.24;34.98
73205;BME280;61413;-27.702;153.216;2023-11-19T10:46:56;102078.83;;;22.28;34.97
73205;BME280;61413;-27.702;153.216;2023-11-19T10:49:23;102078.33;;;21.98;34.88
73205;BME280;61413;-27.702;153.216;2023-11-19T10:51:50;102074.92;;;22.43;34.80
73205;BME280;61413;-27.702;153.216;2023-11-19T10:54:18;102075.06;;;22.48;34.76
73205;BME280;61413;-27.702;153.216;2023-11-19T10:56:41;102076.54;;;22.19;34.81
73205;BME280;61413;-27.702;153.216;2023-11-19T10:59:09;102078.01;;;22.38;34.80
73205;BME280;61413;-27.702;153.216;2023-11-19T11:01:43;102074.74;;;22.33;34.82
73205;BME280;61413;-27.702;153.216;2023-11-19T11:04:03;102079.34;;;22.20;34.84
73205;BME280;61413;-27.702;153.216;2023-11-19T11:06:31;102081.94;;;22.21;34.92
73205;BME280;61413;-27.702;153.216;2023-11-19T11:08:57;102081.99;;;22.42;35.04
73205;BME280;61413;-27.702;153.216;2023-11-19T11:11:24;102085.26;;;22.07;35.12
73205;BME280;61413;-27.702;153.216;2023-11-19T11:13:51;102089.79;;;22.16;35.03
73205;BME280;61413;-27.702;153.216;2023-11-19T11:16:20;102089.25;;;22.10;35.11
73205;BME280;61413;-27.702;153.216;2023-11-19T11:18:45;102090.87;;;22.52;35.13
73205;BME280;61413;-27.702;153.216;2023-11-19T11:21:17;102090.91;;;21.97;35.25
73205;BME280;61413;-27.702;153.216;2023-11-19T11:24:00;102093.62;;;22.14;35.25
73205;BME280;61413;-27.702;153.216;2023-11-19T11:26:24;102093.21;;;22.04;35.42
73205;BME280;61413;-27.702;153.216;2023-11-19T11:28:39;102092.90;;;21.83;35.41
73205;BME280;61413;-27.702;153.216;2023-11-19T11:31:15;102086.46;;;21.76;35.46
73205;BME280;61413;-27.702;153.216;2023-11-19T11:33:37;102084.70;;;22.00;35.44
73205;BME280;61413;-27.702;153.216;2023-11-19T11:35:58;102086.95;;;22.11;35.46
73205;BME280;61413;-27.702;153.216;2023-11-19T11:38:23;102086.41;;;21.94;35.42
73205;BME280;61413;-27.702;153.216;2023-11-19T11:41:16;102088.26;;;21.95;35.49
73205;BME280;61413;-27.702;153.216;2023-11-19T11:43:46;102089.30;;;22.17;35.61
73205;BME280;61413;-27.702;153.216;2023-11-19T11:45:39;102090.87;;;21.93;35.72
73205;BME280;61413;-27.702;153.216;2023-11-19T11:48:16;102097.43;;;21.64;35.79
73205;BME280;61413;-27.702;153.216;2023-11-19T11:50:33;102100.01;;;20.97;35.86
73205;BME280;61413;-27.702;153.216;2023-11-19T11:53:17;102097.86;;;21.92;35.88
73205;BME280;61413;-27.702;153.216;2023-11-19T11:55:26;102104.21;;;21.78;35.95
73205;BME280;61413;-27.702;153.216;2023-11-19T11:57:49;102109.72;;;21.82;35.92
73205;BME280;61413;-27.702;153.216;2023-11-19T12:00:23;102115.10;;;22.05;35.96
73205;BME280;61413;-27.702;153.216;2023-11-19T12:02:40;102119.32;;;22.03;35.96
73205;BME280;61413;-27.702;153.216;2023-11-19T12:05:08;102121.69;;;22.08;36.05
73205;BME280;61413;-27.702;153.216;2023-11-19T12:07:35;102115.88;;;21.89;36.13
73205;BME280;61413;-27.702;153.216;2023-11-19T12:10:09;102113.99;;;21.89;36.16
73205;BME280;61413;-27.702;153.216;2023-11-19T12:12:29;102107.79;;;21.89;36.22
73205;BME280;61413;-27.702;153.216;2023-11-19T12:15:06;102105.98;;;22.00;36.26
73205;BME280;61413;-27.702;153.216;2023-11-19T12:17:53;102105.20;;;21.92;36.26
73205;BME280;61413;-27.702;153.216;2023-11-19T12:19:49;102100.48;;;21.99;36.29